sensor_id;sensor_type;location;lat;lon;timestamp;P1;durP1;ratioP1;P2;durP2;ratioP2
51814;SDS011;37874;53.158;6.766;2023-04-24T00:02:22;0.85;;;0.43;;
51814;SDS011;37874;53.158;6.766;2023-04-24T00:04:49;1.08;;;0.55;;
51814;SDS011;37874;53.158;6.766;2023-04-24T00:07:14;1.00;;;0.50;;
51814;SDS011;37874;53.158;6.766;2023-04-24T00:09:45;1.00;;;0.50;;
51814;SDS011;37874;53.158;6.766;2023-04-24T00:12:10;1.75;;;0.63;;
51814;SDS011;37874;53.158;6.766;2023-04-24T00:14:36;1.38;;;0.60;;
51814;SDS011;37874;53.158;6.766;2023-04-24T00:17:02;1.20;;;0.52;;
51814;SDS011;37874;53.158;6.766;2023-04-24T00:19:28;0.93;;;0.40;;
51814;SDS011;37874;53.158;6.766;2023-04-24T00:21:54;1.05;;;0.43;;
51814;SDS011;37874;53.158;6.766;2023-04-24T00:24:20;1.75;;;0.50;;
51814;SDS011;37874;53.158;6.766;2023-04-24T00:26:46;1.17;;;0.45;;
51814;SDS011;37874;53.158;6.766;2023-04-24T00:29:12;0.68;;;0.38;;
51814;SDS011;37874;53.158;6.766;2023-04-24T00:31:38;0.95;;;0.57;;
51814;SDS011;37874;53.158;6.766;2023-04-24T00:34:04;1.05;;;0.50;;
51814;SDS011;37874;53.158;6.766;2023-04-24T00:36:30;0.70;;;0.30;;
51814;SDS011;37874;53.158;6.766;2023-04-24T00:38:57;1.27;;;0.40;;
51814;SDS011;37874;53.158;6.766;2023-04-24T02:42:35;0.68;;;0.20;;
51814;SDS011;37874;53.158;6.766;2023-04-24T02:45:00;0.50;;;0.20;;
51814;SDS011;37874;53.158;6.766;2023-04-24T02:47:26;0.30;;;0.20;;
51814;SDS011;37874;53.158;6.766;2023-04-24T02:49:51;0.47;;;0.20;;
51814;SDS011;37874;53.158;6.766;2023-04-24T02:52:17;0.43;;;0.20;;
51814;SDS011;37874;53.158;6.766;2023-04-24T02:54:43;0.10;;;0.10;;
51814;SDS011;37874;53.158;6.766;2023-04-24T02:57:08;0.40;;;0.20;;
51814;SDS011;37874;53.158;6.766;2023-04-24T02:59:34;0.80;;;0.30;;
51814;SDS011;37874;53.158;6.766;2023-04-24T03:02:00;0.35;;;0.25;;
51814;SDS011;37874;53.158;6.766;2023-04-24T03:04:25;0.15;;;0.15;;
51814;SDS011;37874;53.158;6.766;2023-04-24T03:06:51;0.82;;;0.20;;
51814;SDS011;37874;53.158;6.766;2023-04-24T03:09:19;0.43;;;0.20;;
51814;SDS011;37874;53.158;6.766;2023-04-24T03:11:45;0.43;;;0.20;;
51814;SDS011;37874;53.158;6.766;2023-04-24T03:14:11;0.38;;;0.20;;
51814;SDS011;37874;53.158;6.766;2023-04-24T03:16:36;0.32;;;0.20;;
51814;SDS011;37874;53.158;6.766;2023-04-24T03:19:02;0.70;;;0.30;;
51814;SDS011;37874;53.158;6.766;2023-04-24T03:21:28;0.32;;;0.20;;
51814;SDS011;37874;53.158;6.766;2023-04-24T03:23:53;0.85;;;0.20;;
51814;SDS011;37874;53.158;6.766;2023-04-24T03:26:19;0.32;;;0.20;;
51814;SDS011;37874;53.158;6.766;2023-04-24T03:28:45;0.20;;;0.17;;
51814;SDS011;37874;53.158;6.766;2023-04-24T03:31:11;0.30;;;0.10;;
51814;SDS011;37874;53.158;6.766;2023-04-24T03:33:36;0.60;;;0.30;;
51814;SDS011;37874;53.158;6.766;2023-04-24T03:36:02;0.30;;;0.20;;
51814;SDS011;37874;53.158;6.766;2023-04-24T03:38:27;0.25;;;0.17;;
51814;SDS011;37874;53.158;6.766;2023-04-24T03:40:53;0.13;;;0.10;;
51814;SDS011;37874;53.158;6.766;2023-04-24T03:43:19;0.32;;;0.20;;
51814;SDS011;37874;53.158;6.766;2023-04-24T03:45:44;0.50;;;0.25;;
51814;SDS011;37874;53.158;6.766;2023-04-24T03:48:10;0.30;;;0.20;;
51814;SDS011;37874;53.158;6.766;2023-04-24T03:50:35;0.45;;;0.20;;
51814;SDS011;37874;53.158;6.766;2023-04-24T03:53:01;0.73;;;0.10;;
51814;SDS011;37874;53.158;6.766;2023-04-24T03:55:27;0.52;;;0.20;;
51814;SDS011;37874;53.158;6.766;2023-04-24T03:57:52;0.20;;;0.13;;
51814;SDS011;37874;53.158;6.766;2023-04-24T04:00:18;0.43;;;0.20;;
51814;SDS011;37874;53.158;6.766;2023-04-24T04:02:44;1.00;;;0.20;;
51814;SDS011;37874;53.158;6.766;2023-04-24T04:05:10;0.35;;;0.10;;
51814;SDS011;37874;53.158;6.766;2023-04-24T04:07:35;0.30;;;0.20;;
51814;SDS011;37874;53.158;6.766;2023-04-24T04:10:01;0.57;;;0.20;;
51814;SDS011;37874;53.158;6.766;2023-04-24T04:12:26;0.30;;;0.20;;
51814;SDS011;37874;53.158;6.766;2023-04-24T04:14:52;1.33;;;0.20;;
51814;SDS011;37874;53.158;6.766;2023-04-24T04:17:18;1.00;;;0.20;;
51814;SDS011;37874;53.158;6.766;2023-04-24T04:19:43;0.10;;;0.10;;
51814;SDS011;37874;53.158;6.766;2023-04-24T04:22:09;1.38;;;0.10;;
51814;SDS011;37874;53.158;6.766;2023-04-24T04:24:35;0.38;;;0.20;;
51814;SDS011;37874;53.158;6.766;2023-04-24T04:27:03;0.30;;;0.10;;
51814;SDS011;37874;53.158;6.766;2023-04-24T04:29:30;0.20;;;0.10;;
51814;SDS011;37874;53.158;6.766;2023-04-24T04:31:56;0.40;;;0.10;;
51814;SDS011;37874;53.158;6.766;2023-04-24T04:34:22;0.55;;;0.28;;
51814;SDS011;37874;53.158;6.766;2023-04-24T04:36:48;0.30;;;0.10;;
51814;SDS011;37874;53.158;6.766;2023-04-24T04:39:15;0.50;;;0.20;;
51814;SDS011;37874;53.158;6.766;2023-04-24T04:41:41;0.20;;;0.10;;
51814;SDS011;37874;53.158;6.766;2023-04-24T04:44:07;0.30;;;0.20;;
51814;SDS011;37874;53.158;6.766;2023-04-24T04:46:34;0.20;;;0.10;;
51814;SDS011;37874;53.158;6.766;2023-04-24T04:49:00;0.50;;;0.20;;
51814;SDS011;37874;53.158;6.766;2023-04-24T04:51:26;0.30;;;0.10;;
51814;SDS011;37874;53.158;6.766;2023-04-24T04:53:52;0.30;;;0.10;;
51814;SDS011;37874;53.158;6.766;2023-04-24T04:56:18;0.20;;;0.10;;
51814;SDS011;37874;53.158;6.766;2023-04-24T04:58:43;0.30;;;0.10;;
51814;SDS011;37874;53.158;6.766;2023-04-24T05:01:09;0.45;;;0.20;;
51814;SDS011;37874;53.158;6.766;2023-04-24T05:03:35;1.40;;;0.30;;
51814;SDS011;37874;53.158;6.766;2023-04-24T05:06:01;0.90;;;0.20;;
51814;SDS011;37874;53.158;6.766;2023-04-24T05:08:27;0.65;;;0.20;;
51814;SDS011;37874;53.158;6.766;2023-04-24T05:10:53;0.10;;;0.10;;
51814;SDS011;37874;53.158;6.766;2023-04-24T05:13:19;0.20;;;0.20;;
51814;SDS011;37874;53.158;6.766;2023-04-24T05:15:45;0.10;;;0.10;;
51814;SDS011;37874;53.158;6.766;2023-04-24T05:18:11;0.10;;;0.10;;
51814;SDS011;37874;53.158;6.766;2023-04-24T05:20:36;0.10;;;0.10;;
51814;SDS011;37874;53.158;6.766;2023-04-24T05:23:02;0.55;;;0.25;;
51814;SDS011;37874;53.158;6.766;2023-04-24T05:25:27;0.22;;;0.10;;
51814;SDS011;37874;53.158;6.766;2023-04-24T05:27:53;0.68;;;0.10;;
51814;SDS011;37874;53.158;6.766;2023-04-24T05:30:19;0.30;;;0.10;;
51814;SDS011;37874;53.158;6.766;2023-04-24T05:32:45;0.10;;;0.10;;
51814;SDS011;37874;53.158;6.766;2023-04-24T05:35:11;0.10;;;0.10;;
51814;SDS011;37874;53.158;6.766;2023-04-24T05:37:36;0.10;;;0.10;;
51814;SDS011;37874;53.158;6.766;2023-04-24T05:40:02;0.30;;;0.10;;
51814;SDS011;37874;53.158;6.766;2023-04-24T05:42:30;0.32;;;0.10;;
51814;SDS011;37874;53.158;6.766;2023-04-24T05:44:56;0.40;;;0.28;;
51814;SDS011;37874;53.158;6.766;2023-04-24T05:47:21;0.10;;;0.10;;
51814;SDS011;37874;53.158;6.766;2023-04-24T05:49:47;0.70;;;0.15;;
51814;SDS011;37874;53.158;6.766;2023-04-24T05:52:13;0.00;;;0.00;;
51814;SDS011;37874;53.158;6.766;2023-04-24T05:54:39;0.20;;;0.10;;
51814;SDS011;37874;53.158;6.766;2023-04-24T05:57:04;0.10;;;0.10;;
51814;SDS011;37874;53.158;6.766;2023-04-24T05:59:33;0.25;;;0.10;;
51814;SDS011;37874;53.158;6.766;2023-04-24T06:02:00;0.50;;;0.20;;
51814;SDS011;37874;53.158;6.766;2023-04-24T06:04:25;0.20;;;0.10;;
51814;SDS011;37874;53.158;6.766;2023-04-24T06:06:51;0.00;;;0.00;;
51814;SDS011;37874;53.158;6.766;2023-04-24T06:09:21;0.08;;;0.08;;
51814;SDS011;37874;53.158;6.766;2023-04-24T06:11:47;0.47;;;0.10;;
51814;SDS011;37874;53.158;6.766;2023-04-24T06:14:12;0.10;;;0.10;;
51814;SDS011;37874;53.158;6.766;2023-04-24T06:16:40;0.35;;;0.13;;
51814;SDS011;37874;53.158;6.766;2023-04-24T06:19:07;0.10;;;0.10;;
51814;SDS011;37874;53.158;6.766;2023-04-24T06:21:32;0.10;;;0.10;;
51814;SDS011;37874;53.158;6.766;2023-04-24T06:23:58;0.10;;;0.10;;
51814;SDS011;37874;53.158;6.766;2023-04-24T06:26:24;0.28;;;0.08;;
51814;SDS011;37874;53.158;6.766;2023-04-24T06:28:51;0.20;;;0.10;;
51814;SDS011;37874;53.158;6.766;2023-04-24T06:31:18;1.42;;;0.10;;
51814;SDS011;37874;53.158;6.766;2023-04-24T06:33:44;0.13;;;0.10;;
51814;SDS011;37874;53.158;6.766;2023-04-24T06:36:10;0.20;;;0.10;;
51814;SDS011;37874;53.158;6.766;2023-04-24T06:38:36;0.35;;;0.10;;
51814;SDS011;37874;53.158;6.766;2023-04-24T06:41:02;0.10;;;0.10;;
51814;SDS011;37874;53.158;6.766;2023-04-24T06:43:30;0.20;;;0.10;;
51814;SDS011;37874;53.158;6.766;2023-04-24T06:45:56;0.28;;;0.13;;
51814;SDS011;37874;53.158;6.766;2023-04-24T06:48:23;0.45;;;0.10;;
51814;SDS011;37874;53.158;6.766;2023-04-24T06:50:49;0.73;;;0.15;;
51814;SDS011;37874;53.158;6.766;2023-04-24T06:53:14;0.68;;;0.20;;
51814;SDS011;37874;53.158;6.766;2023-04-24T06:55:40;0.47;;;0.20;;
51814;SDS011;37874;53.158;6.766;2023-04-24T06:58:07;0.35;;;0.10;;
51814;SDS011;37874;53.158;6.766;2023-04-24T07:00:32;1.15;;;0.20;;
51814;SDS011;37874;53.158;6.766;2023-04-24T07:02:58;1.45;;;0.30;;
51814;SDS011;37874;53.158;6.766;2023-04-24T07:05:24;0.43;;;0.20;;
51814;SDS011;37874;53.158;6.766;2023-04-24T07:07:49;0.38;;;0.22;;
51814;SDS011;37874;53.158;6.766;2023-04-24T07:10:16;0.88;;;0.28;;
51814;SDS011;37874;53.158;6.766;2023-04-24T07:12:43;0.47;;;0.20;;
51814;SDS011;37874;53.158;6.766;2023-04-24T07:15:08;0.32;;;0.22;;
51814;SDS011;37874;53.158;6.766;2023-04-24T07:17:34;0.32;;;0.17;;
51814;SDS011;37874;53.158;6.766;2023-04-24T07:20:00;0.82;;;0.20;;
51814;SDS011;37874;53.158;6.766;2023-04-24T07:22:26;0.30;;;0.10;;
51814;SDS011;37874;53.158;6.766;2023-04-24T07:24:51;0.40;;;0.30;;
51814;SDS011;37874;53.158;6.766;2023-04-24T07:27:17;0.32;;;0.10;;
51814;SDS011;37874;53.158;6.766;2023-04-24T07:29:42;0.52;;;0.10;;
51814;SDS011;37874;53.158;6.766;2023-04-24T07:32:08;0.63;;;0.20;;
51814;SDS011;37874;53.158;6.766;2023-04-24T07:34:34;0.70;;;0.20;;
51814;SDS011;37874;53.158;6.766;2023-04-24T07:37:00;0.60;;;0.28;;
51814;SDS011;37874;53.158;6.766;2023-04-24T07:39:26;0.30;;;0.10;;
51814;SDS011;37874;53.158;6.766;2023-04-24T07:41:52;0.73;;;0.20;;
51814;SDS011;37874;53.158;6.766;2023-04-24T07:44:18;0.43;;;0.20;;
51814;SDS011;37874;53.158;6.766;2023-04-24T07:46:43;1.63;;;0.20;;
51814;SDS011;37874;53.158;6.766;2023-04-24T07:49:09;0.98;;;0.20;;
51814;SDS011;37874;53.158;6.766;2023-04-24T07:51:35;1.00;;;0.20;;
51814;SDS011;37874;53.158;6.766;2023-04-24T07:54:03;0.25;;;0.10;;
51814;SDS011;37874;53.158;6.766;2023-04-24T07:56:31;0.30;;;0.17;;
51814;SDS011;37874;53.158;6.766;2023-04-24T07:58:57;0.57;;;0.10;;
51814;SDS011;37874;53.158;6.766;2023-04-24T08:01:23;0.40;;;0.10;;
51814;SDS011;37874;53.158;6.766;2023-04-24T08:03:49;0.60;;;0.17;;
51814;SDS011;37874;53.158;6.766;2023-04-24T08:06:15;0.70;;;0.20;;
51814;SDS011;37874;53.158;6.766;2023-04-24T08:08:41;0.40;;;0.20;;
51814;SDS011;37874;53.158;6.766;2023-04-24T08:11:06;0.30;;;0.20;;
51814;SDS011;37874;53.158;6.766;2023-04-24T08:13:32;1.17;;;0.28;;
51814;SDS011;37874;53.158;6.766;2023-04-24T08:15:57;0.30;;;0.10;;
51814;SDS011;37874;53.158;6.766;2023-04-24T08:18:23;0.70;;;0.20;;
51814;SDS011;37874;53.158;6.766;2023-04-24T08:20:48;0.68;;;0.20;;
51814;SDS011;37874;53.158;6.766;2023-04-24T08:23:14;0.68;;;0.30;;
51814;SDS011;37874;53.158;6.766;2023-04-24T08:25:39;1.90;;;0.30;;
51814;SDS011;37874;53.158;6.766;2023-04-24T08:28:06;1.90;;;0.35;;
51814;SDS011;37874;53.158;6.766;2023-04-24T08:30:33;0.73;;;0.22;;
51814;SDS011;37874;53.158;6.766;2023-04-24T08:32:59;1.10;;;0.30;;
51814;SDS011;37874;53.158;6.766;2023-04-24T08:35:24;0.60;;;0.20;;
51814;SDS011;37874;53.158;6.766;2023-04-24T08:37:51;1.20;;;0.50;;
51814;SDS011;37874;53.158;6.766;2023-04-24T08:40:18;1.48;;;0.60;;
51814;SDS011;37874;53.158;6.766;2023-04-24T08:42:51;3.63;;;1.00;;
51814;SDS011;37874;53.158;6.766;2023-04-24T08:45:21;1.42;;;0.70;;
51814;SDS011;37874;53.158;6.766;2023-04-24T08:47:46;1.73;;;0.55;;
51814;SDS011;37874;53.158;6.766;2023-04-24T08:50:14;0.90;;;0.47;;
51814;SDS011;37874;53.158;6.766;2023-04-24T08:52:40;2.45;;;0.88;;
51814;SDS011;37874;53.158;6.766;2023-04-24T08:55:07;1.92;;;0.65;;
51814;SDS011;37874;53.158;6.766;2023-04-24T08:57:34;2.25;;;1.00;;
51814;SDS011;37874;53.158;6.766;2023-04-24T09:00:01;2.20;;;0.77;;
51814;SDS011;37874;53.158;6.766;2023-04-24T09:02:26;3.08;;;1.27;;
51814;SDS011;37874;53.158;6.766;2023-04-24T09:04:53;2.95;;;1.30;;
51814;SDS011;37874;53.158;6.766;2023-04-24T09:07:20;2.33;;;0.95;;
51814;SDS011;37874;53.158;6.766;2023-04-24T09:09:50;2.10;;;0.82;;
51814;SDS011;37874;53.158;6.766;2023-04-24T09:12:16;3.95;;;1.50;;
51814;SDS011;37874;53.158;6.766;2023-04-24T09:14:42;1.95;;;0.73;;
51814;SDS011;37874;53.158;6.766;2023-04-24T09:17:10;2.95;;;1.08;;
51814;SDS011;37874;53.158;6.766;2023-04-24T09:19:36;1.92;;;0.80;;
51814;SDS011;37874;53.158;6.766;2023-04-24T09:22:05;2.92;;;1.40;;
51814;SDS011;37874;53.158;6.766;2023-04-24T09:24:32;2.22;;;1.08;;
51814;SDS011;37874;53.158;6.766;2023-04-24T09:26:58;3.05;;;1.20;;
51814;SDS011;37874;53.158;6.766;2023-04-24T09:29:26;2.58;;;1.10;;
51814;SDS011;37874;53.158;6.766;2023-04-24T09:31:52;3.33;;;1.00;;
51814;SDS011;37874;53.158;6.766;2023-04-24T09:34:25;3.00;;;1.10;;
51814;SDS011;37874;53.158;6.766;2023-04-24T09:36:51;2.55;;;1.10;;
51814;SDS011;37874;53.158;6.766;2023-04-24T09:39:18;1.35;;;0.70;;
51814;SDS011;37874;53.158;6.766;2023-04-24T09:44:26;2.00;;;1.10;;
51814;SDS011;37874;53.158;6.766;2023-04-24T09:46:53;1.67;;;1.00;;
51814;SDS011;37874;53.158;6.766;2023-04-24T09:49:27;2.03;;;1.00;;
51814;SDS011;37874;53.158;6.766;2023-04-24T09:52:06;2.85;;;1.00;;
51814;SDS011;37874;53.158;6.766;2023-04-24T09:54:34;2.53;;;1.20;;
51814;SDS011;37874;53.158;6.766;2023-04-24T09:57:01;1.85;;;1.10;;
51814;SDS011;37874;53.158;6.766;2023-04-24T09:59:27;2.55;;;1.02;;
51814;SDS011;37874;53.158;6.766;2023-04-24T10:01:53;2.47;;;0.90;;
51814;SDS011;37874;53.158;6.766;2023-04-24T10:04:22;2.00;;;0.90;;
51814;SDS011;37874;53.158;6.766;2023-04-24T10:06:49;2.53;;;1.10;;
51814;SDS011;37874;53.158;6.766;2023-04-24T10:09:17;1.88;;;0.90;;
51814;SDS011;37874;53.158;6.766;2023-04-24T10:11:44;1.98;;;0.90;;
51814;SDS011;37874;53.158;6.766;2023-04-24T10:14:15;2.00;;;1.05;;
51814;SDS011;37874;53.158;6.766;2023-04-24T10:16:46;2.55;;;1.10;;
51814;SDS011;37874;53.158;6.766;2023-04-24T10:19:12;2.80;;;1.10;;
51814;SDS011;37874;53.158;6.766;2023-04-24T10:21:39;3.55;;;1.20;;
51814;SDS011;37874;53.158;6.766;2023-04-24T10:24:07;2.20;;;0.90;;
51814;SDS011;37874;53.158;6.766;2023-04-24T10:26:35;2.40;;;0.88;;
51814;SDS011;37874;53.158;6.766;2023-04-24T10:29:01;3.00;;;1.33;;
51814;SDS011;37874;53.158;6.766;2023-04-24T10:31:28;2.67;;;1.00;;
51814;SDS011;37874;53.158;6.766;2023-04-24T10:33:56;2.47;;;1.20;;
51814;SDS011;37874;53.158;6.766;2023-04-24T10:36:24;2.63;;;1.02;;
51814;SDS011;37874;53.158;6.766;2023-04-24T10:38:53;3.35;;;1.00;;
51814;SDS011;37874;53.158;6.766;2023-04-24T10:41:20;2.25;;;1.10;;
51814;SDS011;37874;53.158;6.766;2023-04-24T10:43:48;2.15;;;1.08;;
51814;SDS011;37874;53.158;6.766;2023-04-24T10:46:29;2.88;;;0.90;;
51814;SDS011;37874;53.158;6.766;2023-04-24T10:48:56;2.17;;;1.10;;
51814;SDS011;37874;53.158;6.766;2023-04-24T10:51:23;3.50;;;1.10;;
51814;SDS011;37874;53.158;6.766;2023-04-24T10:59:47;2.90;;;1.10;;
51814;SDS011;37874;53.158;6.766;2023-04-24T11:02:36;2.45;;;1.10;;
51814;SDS011;37874;53.158;6.766;2023-04-24T11:05:03;2.40;;;1.08;;
51814;SDS011;37874;53.158;6.766;2023-04-24T11:07:29;3.35;;;1.23;;
51814;SDS011;37874;53.158;6.766;2023-04-24T11:09:58;1.83;;;1.02;;
51814;SDS011;37874;53.158;6.766;2023-04-24T11:12:25;2.88;;;0.98;;
51814;SDS011;37874;53.158;6.766;2023-04-24T11:14:59;2.45;;;1.13;;
51814;SDS011;37874;53.158;6.766;2023-04-24T11:20:05;1.92;;;0.90;;
51814;SDS011;37874;53.158;6.766;2023-04-24T11:22:34;2.28;;;0.98;;
51814;SDS011;37874;53.158;6.766;2023-04-24T11:25:02;3.13;;;1.00;;
51814;SDS011;37874;53.158;6.766;2023-04-24T11:27:32;3.70;;;1.30;;
51814;SDS011;37874;53.158;6.766;2023-04-24T11:30:08;2.97;;;1.20;;
51814;SDS011;37874;53.158;6.766;2023-04-24T11:32:39;2.80;;;0.90;;
51814;SDS011;37874;53.158;6.766;2023-04-24T11:35:06;2.08;;;1.00;;
51814;SDS011;37874;53.158;6.766;2023-04-24T11:37:40;3.63;;;0.90;;
51814;SDS011;37874;53.158;6.766;2023-04-24T11:40:11;4.00;;;0.98;;
51814;SDS011;37874;53.158;6.766;2023-04-24T11:42:41;2.30;;;0.90;;
51814;SDS011;37874;53.158;6.766;2023-04-24T11:45:12;3.72;;;1.35;;
51814;SDS011;37874;53.158;6.766;2023-04-24T11:47:42;2.35;;;1.20;;
51814;SDS011;37874;53.158;6.766;2023-04-24T11:50:11;2.83;;;1.15;;
51814;SDS011;37874;53.158;6.766;2023-04-24T11:52:41;2.45;;;1.20;;
51814;SDS011;37874;53.158;6.766;2023-04-24T11:57:45;3.70;;;1.05;;
51814;SDS011;37874;53.158;6.766;2023-04-24T12:00:15;4.50;;;1.42;;
51814;SDS011;37874;53.158;6.766;2023-04-24T12:02:42;2.78;;;1.08;;
51814;SDS011;37874;53.158;6.766;2023-04-24T12:05:07;3.85;;;1.10;;
51814;SDS011;37874;53.158;6.766;2023-04-24T12:07:40;3.38;;;1.00;;
51814;SDS011;37874;53.158;6.766;2023-04-24T12:10:09;3.53;;;1.15;;
51814;SDS011;37874;53.158;6.766;2023-04-24T12:12:35;3.33;;;1.33;;
51814;SDS011;37874;53.158;6.766;2023-04-24T12:15:01;2.83;;;1.20;;
51814;SDS011;37874;53.158;6.766;2023-04-24T12:17:32;4.38;;;1.13;;
51814;SDS011;37874;53.158;6.766;2023-04-24T12:19:59;3.42;;;1.45;;
51814;SDS011;37874;53.158;6.766;2023-04-24T12:25:34;4.07;;;1.45;;
51814;SDS011;37874;53.158;6.766;2023-04-24T12:30:28;6.93;;;2.75;;
51814;SDS011;37874;53.158;6.766;2023-04-24T12:32:56;4.82;;;2.35;;
51814;SDS011;37874;53.158;6.766;2023-04-24T12:35:23;4.15;;;1.92;;
51814;SDS011;37874;53.158;6.766;2023-04-24T12:37:53;3.60;;;1.50;;
51814;SDS011;37874;53.158;6.766;2023-04-24T12:40:20;3.08;;;1.42;;
51814;SDS011;37874;53.158;6.766;2023-04-24T12:42:51;3.08;;;1.30;;
51814;SDS011;37874;53.158;6.766;2023-04-24T12:45:17;3.75;;;1.20;;
51814;SDS011;37874;53.158;6.766;2023-04-24T12:47:44;3.28;;;1.17;;
51814;SDS011;37874;53.158;6.766;2023-04-24T12:50:11;2.75;;;1.10;;
51814;SDS011;37874;53.158;6.766;2023-04-24T12:52:38;2.95;;;1.10;;
51814;SDS011;37874;53.158;6.766;2023-04-24T12:55:05;3.15;;;1.20;;
51814;SDS011;37874;53.158;6.766;2023-04-24T12:57:36;2.67;;;1.20;;
51814;SDS011;37874;53.158;6.766;2023-04-24T13:00:04;1.75;;;0.90;;
51814;SDS011;37874;53.158;6.766;2023-04-24T13:02:30;4.28;;;0.98;;
51814;SDS011;37874;53.158;6.766;2023-04-24T13:04:57;1.70;;;0.88;;
51814;SDS011;37874;53.158;6.766;2023-04-24T13:07:23;2.50;;;0.98;;
51814;SDS011;37874;53.158;6.766;2023-04-24T13:09:49;1.88;;;0.90;;
51814;SDS011;37874;53.158;6.766;2023-04-24T13:12:16;2.13;;;0.90;;
51814;SDS011;37874;53.158;6.766;2023-04-24T13:14:42;2.60;;;0.95;;
51814;SDS011;37874;53.158;6.766;2023-04-24T13:17:07;3.42;;;1.10;;
51814;SDS011;37874;53.158;6.766;2023-04-24T13:19:37;3.28;;;0.82;;
51814;SDS011;37874;53.158;6.766;2023-04-24T13:22:04;3.38;;;0.98;;
51814;SDS011;37874;53.158;6.766;2023-04-24T13:24:30;2.42;;;0.80;;
51814;SDS011;37874;53.158;6.766;2023-04-24T13:26:57;2.35;;;0.98;;
51814;SDS011;37874;53.158;6.766;2023-04-24T13:29:23;2.97;;;1.02;;
51814;SDS011;37874;53.158;6.766;2023-04-24T13:31:52;2.58;;;0.70;;
51814;SDS011;37874;53.158;6.766;2023-04-24T13:34:24;3.22;;;1.10;;
51814;SDS011;37874;53.158;6.766;2023-04-24T13:36:52;2.67;;;1.00;;
51814;SDS011;37874;53.158;6.766;2023-04-24T13:39:18;1.77;;;0.82;;
51814;SDS011;37874;53.158;6.766;2023-04-24T13:41:44;2.10;;;0.90;;
51814;SDS011;37874;53.158;6.766;2023-04-24T13:44:12;1.17;;;0.63;;
51814;SDS011;37874;53.158;6.766;2023-04-24T13:46:37;2.50;;;0.77;;
51814;SDS011;37874;53.158;6.766;2023-04-24T13:49:03;3.20;;;0.95;;
51814;SDS011;37874;53.158;6.766;2023-04-24T13:51:29;2.15;;;0.88;;
51814;SDS011;37874;53.158;6.766;2023-04-24T13:53:55;1.90;;;0.90;;
51814;SDS011;37874;53.158;6.766;2023-04-24T13:56:20;1.92;;;0.73;;
51814;SDS011;37874;53.158;6.766;2023-04-24T13:58:47;2.35;;;0.70;;
51814;SDS011;37874;53.158;6.766;2023-04-24T14:01:13;3.08;;;1.20;;
51814;SDS011;37874;53.158;6.766;2023-04-24T14:03:40;1.92;;;0.85;;
51814;SDS011;37874;53.158;6.766;2023-04-24T14:06:08;1.80;;;0.70;;
51814;SDS011;37874;53.158;6.766;2023-04-24T14:08:33;3.22;;;1.00;;
51814;SDS011;37874;53.158;6.766;2023-04-24T14:10:59;1.92;;;0.80;;
51814;SDS011;37874;53.158;6.766;2023-04-24T14:13:25;2.10;;;0.80;;
51814;SDS011;37874;53.158;6.766;2023-04-24T14:15:50;1.77;;;0.60;;
51814;SDS011;37874;53.158;6.766;2023-04-24T14:18:17;1.73;;;0.70;;
51814;SDS011;37874;53.158;6.766;2023-04-24T14:20:43;3.33;;;0.82;;
51814;SDS011;37874;53.158;6.766;2023-04-24T14:23:09;2.08;;;0.55;;
51814;SDS011;37874;53.158;6.766;2023-04-24T14:25:35;1.80;;;0.63;;
51814;SDS011;37874;53.158;6.766;2023-04-24T14:28:00;2.60;;;0.95;;
51814;SDS011;37874;53.158;6.766;2023-04-24T14:30:26;2.15;;;0.88;;
51814;SDS011;37874;53.158;6.766;2023-04-24T14:32:51;1.58;;;0.60;;
51814;SDS011;37874;53.158;6.766;2023-04-24T14:35:17;1.98;;;0.70;;
51814;SDS011;37874;53.158;6.766;2023-04-24T14:37:43;2.67;;;0.73;;
51814;SDS011;37874;53.158;6.766;2023-04-24T14:40:08;1.90;;;0.70;;
51814;SDS011;37874;53.158;6.766;2023-04-24T14:42:34;2.10;;;0.80;;
51814;SDS011;37874;53.158;6.766;2023-04-24T14:45:00;2.67;;;0.90;;
51814;SDS011;37874;53.158;6.766;2023-04-24T14:47:26;2.90;;;0.63;;
51814;SDS011;37874;53.158;6.766;2023-04-24T14:49:52;2.95;;;0.88;;
51814;SDS011;37874;53.158;6.766;2023-04-24T14:52:18;2.55;;;0.73;;
51814;SDS011;37874;53.158;6.766;2023-04-24T14:54:44;2.33;;;0.88;;
51814;SDS011;37874;53.158;6.766;2023-04-24T14:57:10;2.30;;;0.90;;
51814;SDS011;37874;53.158;6.766;2023-04-24T14:59:36;2.15;;;0.70;;
51814;SDS011;37874;53.158;6.766;2023-04-24T15:02:01;2.08;;;0.85;;
51814;SDS011;37874;53.158;6.766;2023-04-24T15:04:27;3.17;;;1.08;;
51814;SDS011;37874;53.158;6.766;2023-04-24T15:06:54;2.70;;;0.88;;
51814;SDS011;37874;53.158;6.766;2023-04-24T15:09:20;2.33;;;0.80;;
51814;SDS011;37874;53.158;6.766;2023-04-24T15:11:46;3.60;;;0.80;;
51814;SDS011;37874;53.158;6.766;2023-04-24T15:14:12;1.88;;;0.70;;
51814;SDS011;37874;53.158;6.766;2023-04-24T15:16:38;2.47;;;0.82;;
51814;SDS011;37874;53.158;6.766;2023-04-24T15:19:03;2.75;;;0.70;;
51814;SDS011;37874;53.158;6.766;2023-04-24T15:21:29;2.13;;;0.73;;
51814;SDS011;37874;53.158;6.766;2023-04-24T15:23:56;3.42;;;0.95;;
51814;SDS011;37874;53.158;6.766;2023-04-24T15:26:22;3.25;;;1.00;;
51814;SDS011;37874;53.158;6.766;2023-04-24T15:28:48;3.00;;;1.00;;
51814;SDS011;37874;53.158;6.766;2023-04-24T15:31:14;2.20;;;0.77;;
51814;SDS011;37874;53.158;6.766;2023-04-24T15:33:40;3.97;;;1.08;;
51814;SDS011;37874;53.158;6.766;2023-04-24T15:36:06;3.55;;;1.20;;
51814;SDS011;37874;53.158;6.766;2023-04-24T15:38:31;3.03;;;0.98;;
51814;SDS011;37874;53.158;6.766;2023-04-24T15:40:57;3.33;;;1.10;;
51814;SDS011;37874;53.158;6.766;2023-04-24T15:43:23;2.58;;;0.80;;
51814;SDS011;37874;53.158;6.766;2023-04-24T15:45:51;3.40;;;1.20;;
51814;SDS011;37874;53.158;6.766;2023-04-24T15:48:18;3.92;;;1.00;;
51814;SDS011;37874;53.158;6.766;2023-04-24T15:50:43;3.20;;;1.00;;
51814;SDS011;37874;53.158;6.766;2023-04-24T15:53:09;2.80;;;0.80;;
51814;SDS011;37874;53.158;6.766;2023-04-24T15:55:35;2.72;;;1.00;;
51814;SDS011;37874;53.158;6.766;2023-04-24T15:58:01;4.32;;;1.10;;
51814;SDS011;37874;53.158;6.766;2023-04-24T16:00:27;3.28;;;1.00;;
51814;SDS011;37874;53.158;6.766;2023-04-24T16:02:58;2.63;;;0.90;;
51814;SDS011;37874;53.158;6.766;2023-04-24T16:05:25;3.28;;;0.90;;
51814;SDS011;37874;53.158;6.766;2023-04-24T16:07:50;3.53;;;1.17;;
51814;SDS011;37874;53.158;6.766;2023-04-24T16:10:16;6.35;;;0.73;;
51814;SDS011;37874;53.158;6.766;2023-04-24T16:12:41;2.50;;;0.85;;
51814;SDS011;37874;53.158;6.766;2023-04-24T16:15:07;2.47;;;0.80;;
51814;SDS011;37874;53.158;6.766;2023-04-24T16:17:33;3.55;;;1.00;;
51814;SDS011;37874;53.158;6.766;2023-04-24T16:19:59;4.13;;;1.38;;
51814;SDS011;37874;53.158;6.766;2023-04-24T16:22:25;4.30;;;1.27;;
51814;SDS011;37874;53.158;6.766;2023-04-24T16:24:51;3.28;;;1.10;;
51814;SDS011;37874;53.158;6.766;2023-04-24T16:27:16;2.75;;;1.05;;
51814;SDS011;37874;53.158;6.766;2023-04-24T16:29:42;3.10;;;1.05;;
51814;SDS011;37874;53.158;6.766;2023-04-24T16:32:08;3.22;;;0.80;;
51814;SDS011;37874;53.158;6.766;2023-04-24T16:34:34;3.05;;;0.90;;
51814;SDS011;37874;53.158;6.766;2023-04-24T16:37:00;2.38;;;0.80;;
51814;SDS011;37874;53.158;6.766;2023-04-24T16:39:26;4.78;;;1.20;;
51814;SDS011;37874;53.158;6.766;2023-04-24T16:41:52;4.03;;;1.40;;
51814;SDS011;37874;53.158;6.766;2023-04-24T16:44:18;2.95;;;0.95;;
51814;SDS011;37874;53.158;6.766;2023-04-24T16:46:44;3.13;;;0.90;;
51814;SDS011;37874;53.158;6.766;2023-04-24T16:49:10;3.78;;;1.00;;
51814;SDS011;37874;53.158;6.766;2023-04-24T16:51:36;4.30;;;1.38;;
51814;SDS011;37874;53.158;6.766;2023-04-24T16:54:01;2.33;;;0.90;;
51814;SDS011;37874;53.158;6.766;2023-04-24T16:56:27;3.80;;;1.25;;
51814;SDS011;37874;53.158;6.766;2023-04-24T16:58:53;3.33;;;1.00;;
51814;SDS011;37874;53.158;6.766;2023-04-24T17:01:18;2.95;;;1.20;;
51814;SDS011;37874;53.158;6.766;2023-04-24T17:03:44;3.45;;;1.10;;
51814;SDS011;37874;53.158;6.766;2023-04-24T17:06:10;4.38;;;1.00;;